sensor_id;sensor_type;location;lat;lon;timestamp;pressure;altitude;pressure_sealevel;temperature;humidity
55801;BME280;41730;51.960;20.158;2024-03-06T00:00:07;100508.02;;;6.19;96.30
55801;BME280;41730;51.960;20.158;2024-03-06T00:02:40;100512.81;;;6.15;96.65
55801;BME280;41730;51.960;20.158;2024-03-06T00:05:13;100510.85;;;6.10;96.69
55801;BME280;41730;51.960;20.158;2024-03-06T00:07:45;100509.66;;;6.09;96.96
55801;BME280;41730;51.960;20.158;2024-03-06T00:10:17;100510.67;;;6.24;96.45
55801;BME280;41730;51.960;20.158;2024-03-06T00:12:49;100510.23;;;6.17;96.04
55801;BME280;41730;51.960;20.158;2024-03-06T00:15:21;100509.15;;;6.09;96.68
55801;BME280;41730;51.960;20.158;2024-03-06T00:17:53;100514.00;;;6.12;96.65
55801;BME280;41730;51.960;20.158;2024-03-06T00:20:24;100514.89;;;6.21;96.13
55801;BME280;41730;51.960;20.158;2024-03-06T00:22:56;100517.75;;;6.20;96.01
55801;BME280;41730;51.960;20.158;2024-03-06T00:25:29;100516.36;;;6.05;96.59
55801;BME280;41730;51.960;20.158;2024-03-06T00:28:00;100517.64;;;6.04;96.99
55801;BME280;41730;51.960;20.158;2024-03-06T00:30:32;100517.65;;;5.98;97.12
55801;BME280;41730;51.960;20.158;2024-03-06T00:33:05;100519.48;;;5.96;97.13
55801;BME280;41730;51.960;20.158;2024-03-06T00:35:37;100519.33;;;5.80;97.64
55801;BME280;41730;51.960;20.158;2024-03-06T00:38:09;100520.38;;;5.68;98.59
55801;BME280;41730;51.960;20.158;2024-03-06T00:40:41;100522.04;;;5.66;98.87
55801;BME280;41730;51.960;20.158;2024-03-06T00:43:13;100521.67;;;5.85;98.55
55801;BME280;41730;51.960;20.158;2024-03-06T00:45:45;100518.34;;;6.13;97.05
55801;BME280;41730;51.960;20.158;2024-03-06T00:48:16;100524.39;;;6.02;97.02
55801;BME280;41730;51.960;20.158;2024-03-06T00:50:49;100523.89;;;5.98;97.29
55801;BME280;41730;51.960;20.158;2024-03-06T00:53:21;100523.91;;;6.07;97.15
55801;BME280;41730;51.960;20.158;2024-03-06T00:55:54;100523.22;;;5.98;97.34
55801;BME280;41730;51.960;20.158;2024-03-06T00:58:26;100521.30;;;5.91;97.68
55801;BME280;41730;51.960;20.158;2024-03-06T01:00:58;100521.90;;;5.90;97.66
55801;BME280;41730;51.960;20.158;2024-03-06T01:03:30;100522.50;;;5.95;97.66
55801;BME280;41730;51.960;20.158;2024-03-06T01:06:02;100522.73;;;5.97;97.52
55801;BME280;41730;51.960;20.158;2024-03-06T01:08:33;100526.83;;;5.89;97.78
55801;BME280;41730;51.960;20.158;2024-03-06T01:11:05;100520.11;;;5.88;98.03
55801;BME280;41730;51.960;20.158;2024-03-06T01:13:38;100526.19;;;5.94;98.14
55801;BME280;41730;51.960;20.158;2024-03-06T01:16:10;100527.72;;;6.22;96.74
55801;BME280;41730;51.960;20.158;2024-03-06T01:18:42;100531.13;;;5.99;97.00
55801;BME280;41730;51.960;20.158;2024-03-06T01:21:13;100526.30;;;5.80;98.11
55801;BME280;41730;51.960;20.158;2024-03-06T01:23:45;100526.93;;;5.81;98.25
55801;BME280;41730;51.960;20.158;2024-03-06T01:26:17;100528.98;;;5.91;97.58
55801;BME280;41730;51.960;20.158;2024-03-06T01:28:48;100532.71;;;5.69;98.07
55801;BME280;41730;51.960;20.158;2024-03-06T01:31:20;100535.10;;;5.66;98.70
55801;BME280;41730;51.960;20.158;2024-03-06T01:33:51;100539.89;;;5.77;98.21
55801;BME280;41730;51.960;20.158;2024-03-06T01:36:24;100536.40;;;5.80;97.72
55801;BME280;41730;51.960;20.158;2024-03-06T01:38:55;100541.86;;;5.57;98.48
55801;BME280;41730;51.960;20.158;2024-03-06T01:41:27;100542.27;;;5.59;99.09
55801;BME280;41730;51.960;20.158;2024-03-06T01:43:58;100539.54;;;5.77;98.02
55801;BME280;41730;51.960;20.158;2024-03-06T01:46:30;100546.17;;;5.80;97.65
55801;BME280;41730;51.960;20.158;2024-03-06T01:49:02;100546.27;;;5.81;97.56
55801;BME280;41730;51.960;20.158;2024-03-06T01:51:34;100546.42;;;5.72;97.72
55801;BME280;41730;51.960;20.158;2024-03-06T01:54:06;100548.60;;;5.67;98.20
55801;BME280;41730;51.960;20.158;2024-03-06T01:56:42;100548.78;;;5.67;98.07
55801;BME280;41730;51.960;20.158;2024-03-06T01:59:17;100549.92;;;5.62;98.63
55801;BME280;41730;51.960;20.158;2024-03-06T02:02:04;100545.29;;;5.70;98.16
55801;BME280;41730;51.960;20.158;2024-03-06T02:04:37;100543.82;;;5.78;97.86
55801;BME280;41730;51.960;20.158;2024-03-06T02:07:11;100535.88;;;5.92;96.96
55801;BME280;41730;51.960;20.158;2024-03-06T02:09:44;100538.52;;;5.98;96.41
55801;BME280;41730;51.960;20.158;2024-03-06T02:12:17;100539.27;;;5.87;96.52
55801;BME280;41730;51.960;20.158;2024-03-06T02:14:49;100533.73;;;5.90;96.62
55801;BME280;41730;51.960;20.158;2024-03-06T02:17:21;100533.92;;;5.84;96.88
55801;BME280;41730;51.960;20.158;2024-03-06T02:19:56;100534.65;;;5.74;97.42
55801;BME280;41730;51.960;20.158;2024-03-06T02:22:28;100533.62;;;5.86;97.28
55801;BME280;41730;51.960;20.158;2024-03-06T02:24:59;100531.27;;;5.88;97.15
55801;BME280;41730;51.960;20.158;2024-03-06T02:27:31;100528.63;;;5.91;96.65
55801;BME280;41730;51.960;20.158;2024-03-06T02:30:03;100531.94;;;5.76;97.25
55801;BME280;41730;51.960;20.158;2024-03-06T02:32:34;100529.16;;;5.67;97.75
55801;BME280;41730;51.960;20.158;2024-03-06T02:35:07;100526.73;;;5.60;98.29
55801;BME280;41730;51.960;20.158;2024-03-06T02:37:42;100524.83;;;5.63;98.54
55801;BME280;41730;51.960;20.158;2024-03-06T02:40:14;100527.95;;;5.57;98.59
55801;BME280;41730;51.960;20.158;2024-03-06T02:42:45;100529.02;;;5.57;98.71
55801;BME280;41730;51.960;20.158;2024-03-06T02:45:18;100532.60;;;5.52;99.02
55801;BME280;41730;51.960;20.158;2024-03-06T02:47:50;100531.02;;;5.55;99.23
55801;BME280;41730;51.960;20.158;2024-03-06T02:50:21;100533.81;;;5.55;98.75
55801;BME280;41730;51.960;20.158;2024-03-06T02:52:53;100529.44;;;5.59;98.86
55801;BME280;41730;51.960;20.158;2024-03-06T02:55:25;100534.63;;;5.56;98.81
55801;BME280;41730;51.960;20.158;2024-03-06T02:57:56;100535.53;;;5.74;98.10
55801;BME280;41730;51.960;20.158;2024-03-06T03:00:29;100538.33;;;5.80;97.15
55801;BME280;41730;51.960;20.158;2024-03-06T03:03:01;100537.23;;;5.65;97.48
55801;BME280;41730;51.960;20.158;2024-03-06T03:05:33;100538.73;;;5.45;98.37
55801;BME280;41730;51.960;20.158;2024-03-06T03:08:05;100538.08;;;5.50;98.73
55801;BME280;41730;51.960;20.158;2024-03-06T03:10:38;100547.39;;;5.61;98.08
55801;BME280;41730;51.960;20.158;2024-03-06T03:13:10;100545.81;;;5.64;97.62
55801;BME280;41730;51.960;20.158;2024-03-06T03:15:41;100543.46;;;5.57;97.71
55801;BME280;41730;51.960;20.158;2024-03-06T03:18:13;100542.52;;;5.43;98.69
55801;BME280;41730;51.960;20.158;2024-03-06T03:20:45;100540.79;;;5.46;98.82
55801;BME280;41730;51.960;20.158;2024-03-06T03:23:17;100541.42;;;5.50;98.68
55801;BME280;41730;51.960;20.158;2024-03-06T03:25:52;100537.36;;;5.42;98.87
55801;BME280;41730;51.960;20.158;2024-03-06T03:28:24;100533.51;;;5.45;98.82
55801;BME280;41730;51.960;20.158;2024-03-06T03:30:55;100535.05;;;5.55;98.55
55801;BME280;41730;51.960;20.158;2024-03-06T03:33:27;100540.98;;;5.54;98.20
55801;BME280;41730;51.960;20.158;2024-03-06T03:35:59;100540.04;;;5.52;98.59
55801;BME280;41730;51.960;20.158;2024-03-06T03:38:30;100546.19;;;5.54;98.49
55801;BME280;41730;51.960;20.158;2024-03-06T03:41:02;100544.06;;;5.49;98.91
55801;BME280;41730;51.960;20.158;2024-03-06T03:43:34;100543.90;;;5.55;98.89
55801;BME280;41730;51.960;20.158;2024-03-06T03:46:07;100541.43;;;5.74;97.98
55801;BME280;41730;51.960;20.158;2024-03-06T03:48:39;100543.87;;;5.68;97.71
55801;BME280;41730;51.960;20.158;2024-03-06T03:51:10;100539.50;;;5.68;98.07
55801;BME280;41730;51.960;20.158;2024-03-06T03:53:42;100544.33;;;5.69;97.99
55801;BME280;41730;51.960;20.158;2024-03-06T03:56:13;100547.84;;;5.71;97.99
55801;BME280;41730;51.960;20.158;2024-03-06T03:58:45;100548.01;;;5.72;98.01
55801;BME280;41730;51.960;20.158;2024-03-06T04:01:16;100544.55;;;5.71;98.16
55801;BME280;41730;51.960;20.158;2024-03-06T04:03:57;100543.47;;;5.59;98.26
55801;BME280;41730;51.960;20.158;2024-03-06T04:09:26;100543.18;;;5.80;98.05
55801;BME280;41730;51.960;20.158;2024-03-06T04:11:58;100538.45;;;5.81;97.39
55801;BME280;41730;51.960;20.158;2024-03-06T04:14:29;100539.96;;;5.79;97.60
55801;BME280;41730;51.960;20.158;2024-03-06T04:17:01;100539.04;;;5.61;98.39
55801;BME280;41730;51.960;20.158;2024-03-06T04:19:34;100537.91;;;5.66;98.59
55801;BME280;41730;51.960;20.158;2024-03-06T04:22:05;100539.14;;;5.84;97.91
55801;BME280;41730;51.960;20.158;2024-03-06T04:24:40;100536.21;;;5.86;97.38
55801;BME280;41730;51.960;20.158;2024-03-06T04:27:12;100540.52;;;5.84;97.55
55801;BME280;41730;51.960;20.158;2024-03-06T04:29:44;100538.11;;;5.84;97.51
55801;BME280;41730;51.960;20.158;2024-03-06T04:32:15;100541.03;;;5.75;98.03
55801;BME280;41730;51.960;20.158;2024-03-06T04:34:47;100538.75;;;5.82;98.23
55801;BME280;41730;51.960;20.158;2024-03-06T04:37:18;100544.73;;;5.74;98.08
55801;BME280;41730;51.960;20.158;2024-03-06T04:39:50;100546.87;;;5.67;98.87
55801;BME280;41730;51.960;20.158;2024-03-06T04:42:21;100550.23;;;5.72;98.78
55801;BME280;41730;51.960;20.158;2024-03-06T04:44:53;100545.97;;;5.71;98.87
55801;BME280;41730;51.960;20.158;2024-03-06T04:47:26;100546.96;;;5.81;98.72
55801;BME280;41730;51.960;20.158;2024-03-06T04:49:59;100548.41;;;5.89;98.07
55801;BME280;41730;51.960;20.158;2024-03-06T04:52:31;100551.70;;;5.77;98.51
55801;BME280;41730;51.960;20.158;2024-03-06T04:55:02;100554.29;;;5.90;98.21
55801;BME280;41730;51.960;20.158;2024-03-06T04:57:34;100555.17;;;5.99;97.83
55801;BME280;41730;51.960;20.158;2024-03-06T05:00:10;100556.91;;;6.05;97.54
55801;BME280;41730;51.960;20.158;2024-03-06T05:02:42;100561.88;;;6.00;97.35
55801;BME280;41730;51.960;20.158;2024-03-06T05:05:30;100567.71;;;5.83;98.29
55801;BME280;41730;51.960;20.158;2024-03-06T05:08:20;100569.31;;;5.92;98.41
55801;BME280;41730;51.960;20.158;2024-03-06T05:11:08;100571.84;;;6.03;97.58
55801;BME280;41730;51.960;20.158;2024-03-06T05:13:59;100573.03;;;5.90;98.11
55801;BME280;41730;51.960;20.158;2024-03-06T05:16:48;100578.06;;;5.79;98.72
55801;BME280;41730;51.960;20.158;2024-03-06T05:19:36;100577.12;;;5.86;98.76
55801;BME280;41730;51.960;20.158;2024-03-06T05:22:25;100581.40;;;5.90;98.30
55801;BME280;41730;51.960;20.158;2024-03-06T05:25:14;100578.22;;;5.95;98.24
55801;BME280;41730;51.960;20.158;2024-03-06T05:28:04;100582.34;;;5.80;98.63
55801;BME280;41730;51.960;20.158;2024-03-06T05:30:53;100582.07;;;5.91;98.33
55801;BME280;41730;51.960;20.158;2024-03-06T05:33:42;100585.02;;;5.85;98.35
55801;BME280;41730;51.960;20.158;2024-03-06T05:36:31;100586.39;;;5.91;98.38
55801;BME280;41730;51.960;20.158;2024-03-06T05:39:19;100585.77;;;5.96;97.99
55801;BME280;41730;51.960;20.158;2024-03-06T05:42:09;100582.05;;;6.01;97.71
55801;BME280;41730;51.960;20.158;2024-03-06T05:44:58;100583.97;;;5.91;98.16
55801;BME280;41730;51.960;20.158;2024-03-06T05:47:51;100587.77;;;5.86;98.75
55801;BME280;41730;51.960;20.158;2024-03-06T05:50:41;100591.75;;;5.95;98.41
55801;BME280;41730;51.960;20.158;2024-03-06T05:53:30;100594.05;;;5.91;98.24
55801;BME280;41730;51.960;20.158;2024-03-06T05:56:20;100590.73;;;6.07;97.98
55801;BME280;41730;51.960;20.158;2024-03-06T05:59:09;100595.39;;;6.14;97.41
55801;BME280;41730;51.960;20.158;2024-03-06T06:01:41;100594.08;;;6.12;97.29
55801;BME280;41730;51.960;20.158;2024-03-06T06:04:13;100596.78;;;6.02;97.67
55801;BME280;41730;51.960;20.158;2024-03-06T06:06:45;100597.40;;;5.94;98.14
55801;BME280;41730;51.960;20.158;2024-03-06T06:09:17;100601.35;;;5.85;98.75
55801;BME280;41730;51.960;20.158;2024-03-06T06:11:48;100600.32;;;5.95;98.32
55801;BME280;41730;51.960;20.158;2024-03-06T06:14:21;100608.08;;;5.80;98.94
55801;BME280;41730;51.960;20.158;2024-03-06T06:16:53;100609.86;;;5.86;98.84
55801;BME280;41730;51.960;20.158;2024-03-06T06:19:25;100610.30;;;5.90;98.88
55801;BME280;41730;51.960;20.158;2024-03-06T06:21:56;100611.67;;;6.06;98.14
55801;BME280;41730;51.960;20.158;2024-03-06T06:24:28;100613.43;;;6.06;98.08
55801;BME280;41730;51.960;20.158;2024-03-06T06:27:00;100615.48;;;5.97;98.32
55801;BME280;41730;51.960;20.158;2024-03-06T06:29:31;100616.93;;;6.03;98.31
55801;BME280;41730;51.960;20.158;2024-03-06T06:32:03;100619.91;;;5.99;98.69
55801;BME280;41730;51.960;20.158;2024-03-06T06:34:35;100618.48;;;6.09;98.63
55801;BME280;41730;51.960;20.158;2024-03-06T06:37:07;100619.37;;;6.14;98.10
55801;BME280;41730;51.960;20.158;2024-03-06T06:39:39;100615.52;;;6.21;98.32
55801;BME280;41730;51.960;20.158;2024-03-06T06:42:10;100618.14;;;6.45;97.21
55801;BME280;41730;51.960;20.158;2024-03-06T06:44:42;100619.86;;;6.39;97.08
55801;BME280;41730;51.960;20.158;2024-03-06T06:47:14;100624.91;;;6.33;97.44
55801;BME280;41730;51.960;20.158;2024-03-06T06:49:46;100629.43;;;6.28;97.80
55801;BME280;41730;51.960;20.158;2024-03-06T06:52:18;100631.58;;;6.35;97.52
55801;BME280;41730;51.960;20.158;2024-03-06T06:54:51;100633.58;;;6.25;98.00
55801;BME280;41730;51.960;20.158;2024-03-06T06:57:22;100633.30;;;6.21;98.58
55801;BME280;41730;51.960;20.158;2024-03-06T06:59:54;100636.34;;;6.19;98.51
55801;BME280;41730;51.960;20.158;2024-03-06T07:02:26;100637.27;;;6.18;98.84
55801;BME280;41730;51.960;20.158;2024-03-06T07:04:57;100636.61;;;6.17;98.83
55801;BME280;41730;51.960;20.158;2024-03-06T07:07:29;100639.03;;;6.21;98.79
55801;BME280;41730;51.960;20.158;2024-03-06T07:10:01;100642.94;;;6.35;98.25
55801;BME280;41730;51.960;20.158;2024-03-06T07:12:33;100645.45;;;6.42;97.85
55801;BME280;41730;51.960;20.158;2024-03-06T07:15:07;100643.80;;;6.56;97.15
55801;BME280;41730;51.960;20.158;2024-03-06T07:17:39;100646.84;;;6.51;96.97
55801;BME280;41730;51.960;20.158;2024-03-06T07:20:12;100645.19;;;6.41;97.27
55801;BME280;41730;51.960;20.158;2024-03-06T07:22:45;100647.48;;;6.28;98.16
55801;BME280;41730;51.960;20.158;2024-03-06T07:25:17;100647.09;;;6.23;98.78
55801;BME280;41730;51.960;20.158;2024-03-06T07:27:49;100645.55;;;6.19;99.08
55801;BME280;41730;51.960;20.158;2024-03-06T07:30:22;100648.10;;;6.05;99.85
55801;BME280;41730;51.960;20.158;2024-03-06T07:32:54;100648.13;;;6.02;100.00
55801;BME280;41730;51.960;20.158;2024-03-06T07:35:26;100649.58;;;6.01;100.00
55801;BME280;41730;51.960;20.158;2024-03-06T07:37:58;100649.04;;;5.95;100.00
55801;BME280;41730;51.960;20.158;2024-03-06T07:40:30;100652.08;;;6.03;100.00
55801;BME280;41730;51.960;20.158;2024-03-06T07:43:03;100652.10;;;6.11;100.00
55801;BME280;41730;51.960;20.158;2024-03-06T07:45:36;100657.77;;;6.00;100.00
55801;BME280;41730;51.960;20.158;2024-03-06T07:48:09;100659.33;;;6.01;100.00
55801;BME280;41730;51.960;20.158;2024-03-06T07:50:40;100659.51;;;6.01;100.00
55801;BME280;41730;51.960;20.158;2024-03-06T07:53:12;100666.70;;;6.00;100.00
55801;BME280;41730;51.960;20.158;2024-03-06T07:55:44;100668.27;;;5.99;100.00
55801;BME280;41730;51.960;20.158;2024-03-06T07:58:16;100671.45;;;5.95;100.00
55801;BME280;41730;51.960;20.158;2024-03-06T08:00:48;100673.59;;;6.07;100.00
55801;BME280;41730;51.960;20.158;2024-03-06T08:03:20;100675.21;;;6.09;100.00
55801;BME280;41730;51.960;20.158;2024-03-06T08:05:55;100677.73;;;6.01;100.00
55801;BME280;41730;51.960;20.158;2024-03-06T08:08:26;100677.50;;;5.93;100.00
55801;BME280;41730;51.960;20.158;2024-03-06T08:10:59;100679.95;;;5.96;100.00
55801;BME280;41730;51.960;20.158;2024-03-06T08:13:30;100684.37;;;6.23;100.00
55801;BME280;41730;51.960;20.158;2024-03-06T08:16:02;100687.70;;;6.29;100.00
55801;BME280;41730;51.960;20.158;2024-03-06T08:18:36;100690.27;;;6.17;100.00
55801;BME280;41730;51.960;20.158;2024-03-06T08:21:08;100691.70;;;6.25;100.00
55801;BME280;41730;51.960;20.158;2024-03-06T08:23:40;100694.50;;;6.32;100.00
55801;BME280;41730;51.960;20.158;2024-03-06T08:26:13;100695.42;;;6.36;99.98
55801;BME280;41730;51.960;20.158;2024-03-06T08:28:45;100695.40;;;6.40;99.65
55801;BME280;41730;51.960;20.158;2024-03-06T08:31:17;100695.11;;;6.30;99.95
55801;BME280;41730;51.960;20.158;2024-03-06T08:33:49;100691.52;;;6.26;99.96
55801;BME280;41730;51.960;20.158;2024-03-06T08:36:23;100693.40;;;6.30;99.99
55801;BME280;41730;51.960;20.158;2024-03-06T08:38:56;100694.58;;;6.42;99.81
55801;BME280;41730;51.960;20.158;2024-03-06T08:41:28;100693.83;;;6.49;99.29
55801;BME280;41730;51.960;20.158;2024-03-06T08:44:03;100697.83;;;6.49;99.14
55801;BME280;41730;51.960;20.158;2024-03-06T08:46:35;100703.77;;;6.70;98.52
55801;BME280;41730;51.960;20.158;2024-03-06T08:49:07;100705.23;;;6.86;97.25
55801;BME280;41730;51.960;20.158;2024-03-06T08:51:41;100705.05;;;6.81;97.22
55801;BME280;41730;51.960;20.158;2024-03-06T08:54:13;100703.78;;;6.73;97.47
55801;BME280;41730;51.960;20.158;2024-03-06T08:56:46;100711.64;;;6.64;97.88
55801;BME280;41730;51.960;20.158;2024-03-06T08:59:18;100708.60;;;6.62;98.18
55801;BME280;41730;51.960;20.158;2024-03-06T09:01:51;100711.43;;;6.79;97.50
55801;BME280;41730;51.960;20.158;2024-03-06T09:04:25;100714.86;;;6.92;96.74
55801;BME280;41730;51.960;20.158;2024-03-06T09:07:00;100715.09;;;6.91;96.58
55801;BME280;41730;51.960;20.158;2024-03-06T09:09:35;100719.52;;;7.04;96.12
55801;BME280;41730;51.960;20.158;2024-03-06T09:12:14;100720.33;;;7.02;95.82
55801;BME280;41730;51.960;20.158;2024-03-06T09:14:50;100723.05;;;6.89;96.17
55801;BME280;41730;51.960;20.158;2024-03-06T09:17:24;100722.86;;;6.98;96.26
55801;BME280;41730;51.960;20.158;2024-03-06T09:19:56;100722.52;;;7.15;95.23
55801;BME280;41730;51.960;20.158;2024-03-06T09:22:39;100725.95;;;7.31;94.33
55801;BME280;41730;51.960;20.158;2024-03-06T09:25:13;100729.03;;;7.20;94.06
55801;BME280;41730;51.960;20.158;2024-03-06T09:27:46;100727.14;;;7.09;94.15
55801;BME280;41730;51.960;20.158;2024-03-06T09:30:18;100731.34;;;6.99;94.20
55801;BME280;41730;51.960;20.158;2024-03-06T09:32:50;100730.02;;;6.95;94.55
55801;BME280;41730;51.960;20.158;2024-03-06T09:35:22;100729.54;;;6.94;94.72
55801;BME280;41730;51.960;20.158;2024-03-06T09:37:55;100728.05;;;6.90;94.70
55801;BME280;41730;51.960;20.158;2024-03-06T09:40:28;100730.98;;;6.99;94.46
55801;BME280;41730;51.960;20.158;2024-03-06T09:43:02;100733.17;;;7.09;93.94
55801;BME280;41730;51.960;20.158;2024-03-06T09:45:34;100735.27;;;7.06;94.03
55801;BME280;41730;51.960;20.158;2024-03-06T09:48:10;100737.33;;;6.98;94.56
55801;BME280;41730;51.960;20.158;2024-03-06T09:50:45;100739.32;;;7.17;93.76
55801;BME280;41730;51.960;20.158;2024-03-06T09:53:18;100740.98;;;7.18;92.78
55801;BME280;41730;51.960;20.158;2024-03-06T09:55:51;100737.96;;;7.05;92.74
55801;BME280;41730;51.960;20.158;2024-03-06T09:58:27;100744.28;;;6.98;92.91
55801;BME280;41730;51.960;20.158;2024-03-06T10:01:04;100748.13;;;7.03;92.88
55801;BME280;41730;51.960;20.158;2024-03-06T10:03:41;100751.69;;;7.18;92.08
55801;BME280;41730;51.960;20.158;2024-03-06T10:06:16;100748.25;;;7.34;90.48
55801;BME280;41730;51.960;20.158;2024-03-06T10:08:48;100748.81;;;7.33;90.07
55801;BME280;41730;51.960;20.158;2024-03-06T10:11:21;100752.41;;;7.34;89.92
55801;BME280;41730;51.960;20.158;2024-03-06T10:13:58;100750.61;;;7.24;90.64
55801;BME280;41730;51.960;20.158;2024-03-06T10:16:31;100754.91;;;7.25;90.71
55801;BME280;41730;51.960;20.158;2024-03-06T10:19:17;100754.30;;;7.35;90.72
55801;BME280;41730;51.960;20.158;2024-03-06T10:21:50;100753.55;;;7.44;90.74
55801;BME280;41730;51.960;20.158;2024-03-06T10:24:23;100755.98;;;7.62;90.53
55801;BME280;41730;51.960;20.158;2024-03-06T10:26:58;100753.97;;;7.66;90.11
55801;BME280;41730;51.960;20.158;2024-03-06T10:29:31;100747.88;;;7.60;90.20
55801;BME280;41730;51.960;20.158;2024-03-06T10:32:03;100748.89;;;7.75;89.18
55801;BME280;41730;51.960;20.158;2024-03-06T10:34:36;100750.54;;;7.87;87.24
55801;BME280;41730;51.960;20.158;2024-03-06T10:37:12;100753.24;;;7.64;87.69
55801;BME280;41730;51.960;20.158;2024-03-06T10:39:45;100755.46;;;7.51;88.87
55801;BME280;41730;51.960;20.158;2024-03-06T10:42:19;100756.13;;;7.45;89.45
55801;BME280;41730;51.960;20.158;2024-03-06T10:44:51;100758.19;;;7.45;89.40
55801;BME280;41730;51.960;20.158;2024-03-06T10:47:25;100757.42;;;7.41;89.80
55801;BME280;41730;51.960;20.158;2024-03-06T10:50:01;100760.91;;;7.55;89.38
55801;BME280;41730;51.960;20.158;2024-03-06T10:52:35;100761.29;;;7.52;88.63
55801;BME280;41730;51.960;20.158;2024-03-06T10:55:09;100762.92;;;7.42;88.72
55801;BME280;41730;51.960;20.158;2024-03-06T10:57:43;100764.14;;;7.48;88.88
55801;BME280;41730;51.960;20.158;2024-03-06T11:00:18;100757.29;;;7.46;88.43
55801;BME280;41730;51.960;20.158;2024-03-06T11:02:50;100760.80;;;7.52;87.63
55801;BME280;41730;51.960;20.158;2024-03-06T11:05:23;100764.16;;;7.42;87.56
55801;BME280;41730;51.960;20.158;2024-03-06T11:07:55;100769.27;;;7.27;88.37
55801;BME280;41730;51.960;20.158;2024-03-06T11:10:37;100765.27;;;7.06;89.57
55801;BME280;41730;51.960;20.158;2024-03-06T11:13:22;100763.69;;;7.03;88.88
55801;BME280;41730;51.960;20.158;2024-03-06T11:15:58;100767.48;;;7.10;88.46
55801;BME280;41730;51.960;20.158;2024-03-06T11:18:45;100774.13;;;7.06;87.79
55801;BME280;41730;51.960;20.158;2024-03-06T11:21:33;100771.98;;;6.87;88.36
55801;BME280;41730;51.960;20.158;2024-03-06T11:24:22;100777.58;;;6.68;89.26
55801;BME280;41730;51.960;20.158;2024-03-06T11:27:02;100776.39;;;6.71;89.54
55801;BME280;41730;51.960;20.158;2024-03-06T11:30:06;100778.71;;;6.79;88.97
55801;BME280;41730;51.960;20.158;2024-03-06T11:32:58;100775.58;;;6.67;88.35
55801;BME280;41730;51.960;20.158;2024-03-06T11:35:32;100782.57;;;6.66;89.33
55801;BME280;41730;51.960;20.158;2024-03-06T11:38:07;100783.79;;;6.78;88.43
55801;BME280;41730;51.960;20.158;2024-03-06T11:40:48;100784.10;;;6.82;88.35
55801;BME280;41730;51.960;20.158;2024-03-06T11:43:25;100780.98;;;6.76;88.57
55801;BME280;41730;51.960;20.158;2024-03-06T11:46:09;100788.71;;;6.80;88.61
55801;BME280;41730;51.960;20.158;2024-03-06T11:48:41;100789.83;;;6.67;88.66
55801;BME280;41730;51.960;20.158;2024-03-06T11:51:13;100790.95;;;6.57;89.27
55801;BME280;41730;51.960;20.158;2024-03-06T11:53:45;100792.80;;;6.54;88.72
55801;BME280;41730;51.960;20.158;2024-03-06T11:56:18;100793.95;;;6.65;87.76
55801;BME280;41730;51.960;20.158;2024-03-06T11:58:50;100796.88;;;6.47;88.11
55801;BME280;41730;51.960;20.158;2024-03-06T12:01:23;100793.67;;;6.48;88.25
55801;BME280;41730;51.960;20.158;2024-03-06T12:03:55;100796.50;;;6.57;87.79
55801;BME280;41730;51.960;20.158;2024-03-06T12:06:33;100797.52;;;6.61;87.15
55801;BME280;41730;51.960;20.158;2024-03-06T12:09:07;100799.17;;;6.59;87.10
55801;BME280;41730;51.960;20.158;2024-03-06T12:11:41;100804.52;;;6.48;87.29
55801;BME280;41730;51.960;20.158;2024-03-06T12:14:19;100801.87;;;6.42;87.92
55801;BME280;41730;51.960;20.158;2024-03-06T12:16:58;100800.80;;;6.39;88.20
55801;BME280;41730;51.960;20.158;2024-03-06T12:19:31;100803.02;;;6.40;88.06
55801;BME280;41730;51.960;20.158;2024-03-06T12:22:04;100798.21;;;6.45;88.01
55801;BME280;41730;51.960;20.158;2024-03-06T12:24:36;100804.49;;;6.57;87.66
55801;BME280;41730;51.960;20.158;2024-03-06T12:27:09;100801.90;;;6.54;87.77
55801;BME280;41730;51.960;20.158;2024-03-06T12:29:44;100806.09;;;6.48;87.66
55801;BME280;41730;51.960;20.158;2024-03-06T12:32:19;100802.04;;;6.61;86.59
55801;BME280;41730;51.960;20.158;2024-03-06T12:35:01;100797.45;;;6.53;86.44
55801;BME280;41730;51.960;20.158;2024-03-06T12:37:33;100799.53;;;6.56;86.29
55801;BME280;41730;51.960;20.158;2024-03-06T12:40:07;100800.00;;;6.60;85.82
55801;BME280;41730;51.960;20.158;2024-03-06T12:42:43;100797.24;;;6.66;84.78
55801;BME280;41730;51.960;20.158;2024-03-06T12:45:16;100806.20;;;6.61;84.62
55801;BME280;41730;51.960;20.158;2024-03-06T12:47:49;100801.92;;;6.60;84.15
55801;BME280;41730;51.960;20.158;2024-03-06T12:50:21;100812.81;;;6.61;84.33
55801;BME280;41730;51.960;20.158;2024-03-06T12:52:53;100808.67;;;6.67;83.46
55801;BME280;41730;51.960;20.158;2024-03-06T12:55:25;100812.52;;;6.60;83.01
55801;BME280;41730;51.960;20.158;2024-03-06T12:57:57;100823.25;;;6.43;83.65
55801;BME280;41730;51.960;20.158;2024-03-06T13:00:29;100826.02;;;6.28;84.38
55801;BME280;41730;51.960;20.158;2024-03-06T13:03:01;100827.13;;;6.26;85.40
55801;BME280;41730;51.960;20.158;2024-03-06T13:05:33;100826.27;;;6.39;85.68
55801;BME280;41730;51.960;20.158;2024-03-06T13:08:06;100822.42;;;6.58;84.92
55801;BME280;41730;51.960;20.158;2024-03-06T13:10:38;100821.38;;;6.73;83.02
55801;BME280;41730;51.960;20.158;2024-03-06T13:13:10;100823.33;;;6.63;82.69
55801;BME280;41730;51.960;20.158;2024-03-06T13:15:42;100820.84;;;6.67;82.66
55801;BME280;41730;51.960;20.158;2024-03-06T13:18:13;100826.50;;;6.69;82.39
55801;BME280;41730;51.960;20.158;2024-03-06T13:20:46;100825.98;;;6.72;82.77
55801;BME280;41730;51.960;20.158;2024-03-06T13:23:19;100824.20;;;6.63;82.79
55801;BME280;41730;51.960;20.158;2024-03-06T13:25:57;100830.80;;;6.51;83.64
55801;BME280;41730;51.960;20.158;2024-03-06T13:28:30;100831.73;;;6.41;83.67